Time;durP1;ratioP1;P1;durP2;ratioP2;P2;SDS_P1;SDS_P2;PMS_P1;PMS_P2;Temp;Humidity;BMP_temperature;BMP_pressure;BME280_temperature;BME280_humidity;BME280_pressure;Samples;Min_cycle;Max_cycle;Signal;HPM_P1;HPM_P2
2021/10/10 00:00:49;;;;;;;11.93;7.45;;;11.10;77.70;;;;;;5010978;28;20476;-74
2021/10/10 00:03:15;;;;;;;9.98;6.80;;;11.10;77.70;;;;;;5010849;28;20026;-74
2021/10/10 00:05:41;;;;;;;11.07;8.07;;;11.10;77.60;;;;;;5010898;28;20538;-74
2021/10/10 00:08:06;;;;;;;10.20;7.55;;;11.10;77.60;;;;;;5009905;28;20033;-75
2021/10/10 00:10:32;;;;;;;11.68;7.93;;;11.00;77.60;;;;;;5012812;28;20034;-75
2021/10/10 00:12:59;;;;;;;9.98;7.18;;;11.00;77.60;;;;;;5017889;28;20029;-74
2021/10/10 00:15:25;;;;;;;9.15;6.50;;;11.00;77.60;;;;;;5012625;28;20022;-75
2021/10/10 00:17:51;;;;;;;11.05;7.93;;;11.00;77.60;;;;;;5009642;28;20026;-74
2021/10/10 00:20:17;;;;;;;11.05;7.47;;;11.00;77.60;;;;;;5010185;28;20438;-74
2021/10/10 00:22:43;;;;;;;9.57;7.05;;;11.00;77.60;;;;;;5010288;28;20022;-74
2021/10/10 00:25:09;;;;;;;9.52;6.72;;;11.00;77.70;;;;;;5010578;28;20033;-74
2021/10/10 00:27:35;;;;;;;9.13;7.32;;;10.90;77.70;;;;;;5009717;28;20017;-74
2021/10/10 00:30:03;;;;;;;10.48;7.30;;;10.90;77.70;;;;;;5010261;28;20030;-73
2021/10/10 00:32:28;;;;;;;8.95;7.20;;;10.90;77.80;;;;;;5009735;28;20042;-74
2021/10/10 00:34:54;;;;;;;8.05;6.50;;;10.90;77.80;;;;;;5009587;28;20058;-74
2021/10/10 00:37:19;;;;;;;10.32;6.85;;;10.90;77.80;;;;;;5012014;28;20079;-74
2021/10/10 00:39:45;;;;;;;8.82;6.63;;;10.90;77.80;;;;;;5009998;28;20460;-74
2021/10/10 00:42:10;;;;;;;10.50;7.18;;;10.90;77.70;;;;;;5010504;28;20022;-73
2021/10/10 00:44:36;;;;;;;10.75;7.43;;;10.90;77.80;;;;;;5010245;28;20034;-74
2021/10/10 00:47:02;;;;;;;9.15;6.93;;;10.80;77.70;;;;;;5009158;28;20029;-75
2021/10/10 00:49:27;;;;;;;11.07;7.60;;;10.80;77.90;;;;;;5005682;28;20090;-75
2021/10/10 00:51:53;;;;;;;9.25;6.72;;;10.80;77.90;;;;;;5010213;28;20026;-74
2021/10/10 00:54:19;;;;;;;8.57;6.47;;;10.70;77.90;;;;;;5009665;28;20026;-74
2021/10/10 00:56:46;;;;;;;8.23;6.47;;;10.70;78.00;;;;;;5009297;28;20468;-74
2021/10/10 00:59:22;;;;;;;10.27;7.32;;;10.60;77.90;;;;;;5008975;28;20030;-75
2021/10/10 01:01:51;;;;;;;9.50;6.53;;;10.60;77.90;;;;;;5010065;28;20029;-75
2021/10/10 01:04:17;;;;;;;9.90;7.13;;;10.60;78.00;;;;;;5007561;28;20661;-75
2021/10/10 01:06:43;;;;;;;10.70;7.25;;;10.60;77.90;;;;;;5009075;28;20045;-75
2021/10/10 01:09:12;;;;;;;9.70;7.35;;;10.60;77.90;;;;;;5008805;28;20058;-75
2021/10/10 01:11:40;;;;;;;9.43;6.82;;;10.50;78.00;;;;;;5009259;28;20026;-74
2021/10/10 01:14:06;;;;;;;9.02;6.63;;;10.50;78.00;;;;;;5007454;28;20030;-74
2021/10/10 01:16:31;;;;;;;10.23;7.63;;;10.40;78.10;;;;;;5008780;28;20030;-75
2021/10/10 01:18:58;;;;;;;11.02;7.10;;;10.40;78.10;;;;;;5007786;28;20030;-75
2021/10/10 01:21:24;;;;;;;10.25;7.53;;;10.40;78.10;;;;;;5008887;28;20033;-73
2021/10/10 01:23:49;;;;;;;9.52;7.45;;;10.40;78.10;;;;;;5009403;28;20034;-74
2021/10/10 01:26:16;;;;;;;9.20;6.68;;;10.40;78.00;;;;;;5009189;28;20075;-74
2021/10/10 01:28:42;;;;;;;9.60;7.00;;;10.40;78.10;;;;;;5009751;28;20138;-75
2021/10/10 01:31:07;;;;;;;8.60;6.68;;;10.40;78.10;;;;;;5009364;28;20097;-75
2021/10/10 01:33:33;;;;;;;10.00;6.65;;;10.30;78.10;;;;;;5018246;28;20045;-74
2021/10/10 01:35:59;;;;;;;9.27;7.10;;;10.20;78.10;;;;;;5008793;28;20028;-74
2021/10/10 01:38:25;;;;;;;11.27;7.30;;;10.20;78.20;;;;;;5018383;28;20500;-74
2021/10/10 01:40:51;;;;;;;8.57;6.45;;;10.20;78.20;;;;;;5009446;28;20034;-74
2021/10/10 01:43:17;;;;;;;8.98;7.00;;;10.20;78.10;;;;;;5009744;28;20056;-74
2021/10/10 01:45:42;;;;;;;9.98;6.95;;;10.20;78.10;;;;;;5008692;28;20038;-74
2021/10/10 01:48:08;;;;;;;10.57;7.05;;;10.20;78.10;;;;;;5004126;28;20091;-74
2021/10/10 01:50:34;;;;;;;10.43;7.20;;;10.10;78.10;;;;;;5008666;28;20077;-75
2021/10/10 01:52:59;;;;;;;8.43;6.55;;;10.10;78.20;;;;;;5007293;28;20033;-74
2021/10/10 01:55:25;;;;;;;8.93;7.20;;;10.10;78.20;;;;;;5002972;28;20018;-75
2021/10/10 01:57:51;;;;;;;10.55;7.88;;;10.10;78.20;;;;;;5008162;28;20026;-75
2021/10/10 02:00:16;;;;;;;8.93;7.00;;;10.00;78.10;;;;;;5007995;28;20132;-75
2021/10/10 02:02:42;;;;;;;11.05;7.40;;;10.00;78.20;;;;;;5009381;28;20491;-75
2021/10/10 02:05:09;;;;;;;9.65;7.05;;;10.00;78.20;;;;;;5008132;28;20108;-75
2021/10/10 02:07:35;;;;;;;9.20;6.57;;;10.00;78.20;;;;;;5008154;28;20041;-75
2021/10/10 02:10:01;;;;;;;9.02;7.05;;;10.00;78.10;;;;;;5008347;28;20072;-75
2021/10/10 02:12:26;;;;;;;10.50;7.55;;;9.90;78.00;;;;;;5008217;28;20025;-75
2021/10/10 02:14:52;;;;;;;10.15;7.10;;;9.90;78.60;;;;;;5008592;28;20034;-75
2021/10/10 02:17:19;;;;;;;8.45;6.68;;;9.90;78.10;;;;;;5008352;28;20090;-74
2021/10/10 02:19:45;;;;;;;9.25;7.03;;;9.80;78.10;;;;;;5011561;28;20079;-74
2021/10/10 02:22:10;;;;;;;10.40;6.85;;;9.80;78.10;;;;;;5010612;28;20026;-74
2021/10/10 02:24:36;;;;;;;10.10;7.25;;;9.70;78.20;;;;;;5007669;28;20472;-74
2021/10/10 02:27:02;;;;;;;9.88;7.28;;;9.70;78.20;;;;;;5007715;28;20036;-75
2021/10/10 02:29:27;;;;;;;9.65;7.40;;;9.70;78.20;;;;;;5007704;28;20025;-74
2021/10/10 02:31:55;;;;;;;8.30;7.00;;;9.70;78.20;;;;;;5004340;28;20409;-75
2021/10/10 02:34:20;;;;;;;9.40;7.07;;;9.70;78.20;;;;;;5003047;28;20022;-74
2021/10/10 02:36:46;;;;;;;9.98;7.25;;;9.70;78.20;;;;;;5002764;28;20018;-74
2021/10/10 02:39:12;;;;;;;9.02;7.20;;;9.60;78.90;;;;;;5004622;28;20044;-74
2021/10/10 02:41:37;;;;;;;10.85;7.32;;;9.70;78.40;;;;;;5007836;28;20439;-75
2021/10/10 02:44:03;;;;;;;10.10;8.10;;;9.70;78.30;;;;;;5007725;28;20574;-75
2021/10/10 02:46:29;;;;;;;9.35;7.00;;;9.70;78.20;;;;;;5008220;28;20022;-75
2021/10/10 02:48:56;;;;;;;8.52;6.72;;;9.60;78.10;;;;;;5008387;28;20082;-74
2021/10/10 02:51:22;;;;;;;11.73;7.25;;;9.60;78.20;;;;;;5007972;28;20468;-74
2021/10/10 02:53:48;;;;;;;10.00;7.38;;;9.60;78.20;;;;;;5008605;28;20026;-74
2021/10/10 02:56:14;;;;;;;9.48;7.63;;;9.60;78.10;;;;;;5017492;28;20043;-74
2021/10/10 02:58:42;;;;;;;10.35;8.13;;;9.60;78.10;;;;;;5008039;28;20044;-74
2021/10/10 03:01:09;;;;;;;11.57;8.15;;;9.60;78.20;;;;;;5010118;28;20157;-74
2021/10/10 03:03:34;;;;;;;11.18;8.15;;;9.60;78.10;;;;;;5021616;28;20029;-74
2021/10/10 03:06:00;;;;;;;11.18;8.25;;;9.60;78.20;;;;;;5013850;28;20026;-74
2021/10/10 03:08:25;;;;;;;10.13;7.90;;;9.50;78.10;;;;;;5007342;28;20025;-74
2021/10/10 03:10:51;;;;;;;13.50;8.93;;;9.50;78.10;;;;;;5007800;28;20041;-75
2021/10/10 03:13:16;;;;;;;9.48;7.97;;;9.50;78.30;;;;;;5007936;28;20030;-75
2021/10/10 03:15:42;;;;;;;13.18;9.18;;;9.40;78.40;;;;;;5007996;28;20042;-75
2021/10/10 03:18:07;;;;;;;12.40;9.27;;;9.40;78.40;;;;;;5007823;28;20434;-75
2021/10/10 03:20:33;;;;;;;12.93;8.63;;;9.40;78.60;;;;;;5007236;28;20457;-75
2021/10/10 03:22:59;;;;;;;11.80;8.60;;;9.30;78.50;;;;;;5007303;28;20041;-76
2021/10/10 03:25:24;;;;;;;12.27;9.30;;;9.30;78.50;;;;;;5007488;28;20079;-75
2021/10/10 03:27:50;;;;;;;10.65;8.38;;;9.30;79.20;;;;;;5009236;28;20497;-75
2021/10/10 03:30:16;;;;;;;12.65;9.40;;;9.30;78.50;;;;;;5010350;28;20021;-76
2021/10/10 03:32:41;;;;;;;12.52;9.65;;;9.30;78.50;;;;;;5012378;28;20034;-76
2021/10/10 03:35:07;;;;;;;14.48;9.93;;;9.40;78.40;;;;;;5012451;28;20022;-74
2021/10/10 03:37:35;;;;;;;12.88;9.05;;;9.30;78.20;;;;;;5007233;28;20034;-74
2021/10/10 03:40:03;;;;;;;12.30;9.23;;;9.30;78.30;;;;;;5019231;28;20063;-74
2021/10/10 03:42:28;;;;;;;12.32;8.95;;;9.30;78.40;;;;;;5007892;28;20048;-74
2021/10/10 03:44:54;;;;;;;12.15;9.45;;;9.30;78.50;;;;;;5011284;28;20042;-74
2021/10/10 03:47:19;;;;;;;11.85;8.80;;;9.20;78.60;;;;;;5014227;28;20030;-74
2021/10/10 03:49:45;;;;;;;11.65;9.18;;;9.20;78.60;;;;;;5007735;28;20022;-74
2021/10/10 03:52:10;;;;;;;13.80;10.18;;;9.20;78.60;;;;;;5008412;28;20465;-73
2021/10/10 03:57:24;;;;;;;14.60;10.30;;;9.30;78.40;;;;;;5008518;28;20067;-74
2021/10/10 04:00:02;;;;;;;13.00;9.70;;;9.20;78.30;;;;;;5002049;28;20037;-74
2021/10/10 04:02:28;;;;;;;13.30;9.68;;;9.20;78.30;;;;;;5007938;28;20026;-74
2021/10/10 04:04:54;;;;;;;12.57;9.45;;;9.20;78.30;;;;;;5015089;28;20113;-74
2021/10/10 04:07:20;;;;;;;11.80;9.02;;;9.20;78.30;;;;;;5007231;28;20029;-73
2021/10/10 04:09:46;;;;;;;13.20;9.65;;;9.20;78.30;;;;;;5007587;28;20033;-74
2021/10/10 04:12:12;;;;;;;14.02;9.88;;;9.20;78.40;;;;;;5008284;28;20472;-74
2021/10/10 04:14:37;;;;;;;11.95;9.15;;;9.10;78.30;;;;;;5008465;28;20501;-74
2021/10/10 04:17:03;;;;;;;12.27;9.20;;;9.00;78.40;;;;;;5007595;28;20022;-75
2021/10/10 04:19:29;;;;;;;12.57;9.65;;;9.00;78.60;;;;;;5008048;28;20030;-75
2021/10/10 04:21:55;;;;;;;13.23;9.55;;;9.00;78.60;;;;;;5007085;28;20037;-75
2021/10/10 04:24:20;;;;;;;13.07;9.50;;;9.00;78.60;;;;;;5008335;28;20033;-74
2021/10/10 04:26:46;;;;;;;14.27;9.82;;;9.00;78.60;;;;;;5008333;28;20072;-74
2021/10/10 04:29:11;;;;;;;12.02;8.93;;;9.00;78.50;;;;;;5007790;28;20037;-73
2021/10/10 04:31:37;;;;;;;10.93;7.53;;;8.90;78.50;;;;;;5007007;28;20033;-73
2021/10/10 04:34:03;;;;;;;12.35;9.32;;;8.90;78.50;;;;;;5002300;28;20422;-73
2021/10/10 04:36:28;;;;;;;13.05;9.60;;;8.90;78.50;;;;;;5006214;28;20029;-72
2021/10/10 04:38:54;;;;;;;11.25;8.80;;;8.90;78.70;;;;;;5005947;28;20030;-72
2021/10/10 04:41:19;;;;;;;14.30;8.63;;;8.90;78.70;;;;;;5009322;28;20045;-73
2021/10/10 04:43:45;;;;;;;11.70;8.60;;;8.90;78.80;;;;;;5005437;28;20041;-74
2021/10/10 04:46:10;;;;;;;12.13;8.90;;;8.90;78.80;;;;;;5007026;28;20449;-74
2021/10/10 04:48:36;;;;;;;12.25;8.88;;;8.80;78.80;;;;;;5009254;28;20029;-73
2021/10/10 04:51:02;;;;;;;12.40;8.73;;;8.80;78.90;;;;;;5009846;28;20062;-73
2021/10/10 04:53:27;;;;;;;11.70;8.88;;;8.80;78.90;;;;;;5010219;28;20104;-74
2021/10/10 04:55:53;;;;;;;12.02;8.68;;;8.80;78.70;;;;;;5009996;28;20081;-75
2021/10/10 04:58:18;;;;;;;11.35;8.93;;;8.80;78.70;;;;;;5008432;28;20022;-74
2021/10/10 05:00:44;;;;;;;12.15;8.50;;;8.90;78.60;;;;;;5010297;28;20049;-74
2021/10/10 05:03:09;;;;;;;10.95;7.95;;;8.80;78.40;;;;;;5009292;28;20029;-74
2021/10/10 05:05:35;;;;;;;11.15;8.38;;;8.80;78.50;;;;;;5008463;28;20476;-74
2021/10/10 05:08:00;;;;;;;11.40;8.55;;;8.80;78.50;;;;;;5008755;28;20030;-76
2021/10/10 05:10:26;;;;;;;10.95;7.78;;;8.80;78.60;;;;;;5010096;28;20030;-77
2021/10/10 05:12:52;;;;;;;12.55;8.45;;;8.70;78.70;;;;;;5009543;28;20523;-76
2021/10/10 05:15:17;;;;;;;11.95;8.70;;;8.70;78.70;;;;;;5009096;28;20022;-76
2021/10/10 05:17:43;;;;;;;10.43;8.48;;;8.80;78.70;;;;;;5008720;28;20097;-76
2021/10/10 05:20:09;;;;;;;11.48;8.45;;;8.70;78.50;;;;;;5009413;28;20050;-76
2021/10/10 05:22:34;;;;;;;13.13;9.48;;;8.70;78.60;;;;;;5009388;28;20049;-76
2021/10/10 05:25:00;;;;;;;12.93;8.73;;;8.70;78.60;;;;;;5009249;28;20054;-76
2021/10/10 05:27:26;;;;;;;11.82;8.68;;;8.70;78.60;;;;;;5008829;28;20033;-76
2021/10/10 05:29:52;;;;;;;12.35;8.52;;;8.60;78.60;;;;;;5009726;28;20384;-76
2021/10/10 05:32:18;;;;;;;10.73;8.18;;;8.60;78.60;;;;;;5009106;28;20472;-76
2021/10/10 05:34:43;;;;;;;10.98;8.10;;;8.60;78.80;;;;;;5008315;28;20033;-77
2021/10/10 05:37:09;;;;;;;11.35;8.68;;;8.60;78.70;;;;;;5015527;28;20086;-76
2021/10/10 05:39:35;;;;;;;11.43;8.32;;;8.60;78.60;;;;;;5007622;28;20074;-78
2021/10/10 05:42:00;;;;;;;12.88;8.68;;;8.50;78.70;;;;;;5009585;28;20026;-75
2021/10/10 05:44:26;;;;;;;11.50;8.25;;;8.50;78.80;;;;;;5009148;28;20154;-76
2021/10/10 05:46:52;;;;;;;13.00;8.55;;;8.50;78.80;;;;;;5029557;28;20659;-76
2021/10/10 05:49:17;;;;;;;12.05;8.40;;;8.50;78.60;;;;;;5028117;28;20030;-77
2021/10/10 05:51:45;;;;;;;12.43;8.77;;;8.50;78.70;;;;;;5007980;28;20030;-77
2021/10/10 05:54:12;;;;;;;10.80;7.97;;;8.50;78.80;;;;;;5008643;28;20577;-76
2021/10/10 05:56:39;;;;;;;12.35;8.52;;;8.50;78.80;;;;;;5001354;28;20094;-76
2021/10/10 05:59:07;;;;;;;13.02;8.63;;;8.40;78.80;;;;;;5008865;28;20456;-77
2021/10/10 06:01:33;;;;;;;10.52;7.80;;;8.50;78.80;;;;;;5009090;28;20026;-77
2021/10/10 06:03:59;;;;;;;12.60;8.77;;;8.50;78.70;;;;;;5009060;28;20030;-76
2021/10/10 06:06:24;;;;;;;14.18;9.43;;;8.50;78.80;;;;;;4999336;28;20111;-76
2021/10/10 06:08:50;;;;;;;12.80;8.27;;;8.50;78.70;;;;;;5007137;28;20026;-77
2021/10/10 06:11:16;;;;;;;10.43;7.75;;;8.50;78.60;;;;;;5006778;28;20392;-84
2021/10/10 06:13:41;;;;;;;11.70;8.75;;;8.50;78.70;;;;;;5003012;28;20075;-77
2021/10/10 06:16:07;;;;;;;12.32;8.25;;;8.50;78.60;;;;;;5008693;28;20030;-78
2021/10/10 06:18:33;;;;;;;11.20;8.50;;;8.50;78.50;;;;;;5011464;28;20032;-77
2021/10/10 06:20:58;;;;;;;12.45;9.25;;;8.50;78.60;;;;;;5012732;28;20026;-77
2021/10/10 06:23:24;;;;;;;11.70;8.63;;;8.50;78.50;;;;;;5014763;28;20503;-78
2021/10/10 06:25:50;;;;;;;12.60;8.52;;;8.60;78.50;;;;;;5008227;28;20068;-77
2021/10/10 06:28:15;;;;;;;11.77;9.13;;;8.60;78.40;;;;;;5011592;28;20037;-77
2021/10/10 06:30:41;;;;;;;9.40;7.93;;;8.60;78.50;;;;;;5011595;28;20022;-77
2021/10/10 06:33:06;;;;;;;10.68;8.60;;;8.60;78.30;;;;;;5031888;28;20109;-82
2021/10/10 06:35:32;;;;;;;13.90;9.75;;;8.60;78.40;;;;;;5013726;28;20026;-78
2021/10/10 06:37:57;;;;;;;10.55;8.00;;;8.60;78.50;;;;;;5045245;28;20028;-78
2021/10/10 06:40:23;;;;;;;11.20;8.25;;;8.70;78.30;;;;;;5015901;28;20041;-78
2021/10/10 06:42:49;;;;;;;12.07;8.40;;;8.70;78.20;;;;;;5009949;28;20032;-78
2021/10/10 06:45:15;;;;;;;11.00;8.32;;;8.80;78.30;;;;;;5010691;28;20026;-76
2021/10/10 06:47:40;;;;;;;11.70;9.25;;;8.90;78.20;;;;;;5010371;28;20018;-77
2021/10/10 06:50:06;;;;;;;10.98;8.18;;;8.90;78.30;;;;;;5008143;28;20033;-77
2021/10/10 06:52:32;;;;;;;12.48;9.02;;;8.90;78.30;;;;;;5013709;28;20916;-77
2021/10/10 06:54:58;;;;;;;11.18;8.43;;;9.00;78.30;;;;;;5007676;28;20022;-78
2021/10/10 06:57:28;;;;;;;10.55;8.00;;;9.10;78.40;;;;;;5006682;28;20022;-76
2021/10/10 06:59:55;;;;;;;11.43;8.13;;;9.20;78.40;;;;;;5011277;28;20107;-77
2021/10/10 07:02:21;;;;;;;9.93;7.57;;;9.30;78.20;;;;;;5006866;28;20022;-76
2021/10/10 07:04:47;;;;;;;11.85;8.50;;;9.40;78.10;;;;;;5007461;28;20387;-77
2021/10/10 07:07:12;;;;;;;11.45;8.50;;;9.50;77.90;;;;;;5037889;28;20020;-77
2021/10/10 07:09:38;;;;;;;8.68;6.85;;;9.60;77.80;;;;;;5023990;28;20025;-76
2021/10/10 07:12:03;;;;;;;10.43;8.23;;;9.70;77.80;;;;;;5007725;28;20013;-77
2021/10/10 07:14:30;;;;;;;15.10;10.25;;;9.70;77.90;;;;;;5035804;28;20030;-77
2021/10/10 07:16:57;;;;;;;13.60;9.98;;;9.90;78.00;;;;;;5007991;28;20037;-76
2021/10/10 07:19:25;;;;;;;11.80;8.77;;;10.00;78.30;;;;;;5013556;28;20113;-77
2021/10/10 07:21:59;;;;;;;12.48;9.40;;;10.10;78.40;;;;;;5008025;28;20504;-77
2021/10/10 07:27:09;;;;;;;10.60;8.88;;;10.30;78.20;;;;;;5004873;28;20109;-77
2021/10/10 07:29:35;;;;;;;12.18;8.57;;;10.40;78.00;;;;;;5010969;28;20030;-76
2021/10/10 07:32:01;;;;;;;12.90;8.77;;;10.50;78.00;;;;;;5005478;28;20487;-76
2021/10/10 07:34:27;;;;;;;14.00;9.75;;;10.60;78.00;;;;;;5014207;28;20414;-77
2021/10/10 07:36:52;;;;;;;16.50;11.48;;;10.60;78.00;;;;;;5003665;28;20027;-77
2021/10/10 07:39:19;;;;;;;16.13;11.77;;;10.60;78.10;;;;;;5004365;28;20038;-76
2021/10/10 07:41:45;;;;;;;13.38;9.20;;;10.70;78.60;;;;;;5003095;28;20066;-77
2021/10/10 07:44:14;;;;;;;12.93;9.30;;;10.80;78.20;;;;;;4999212;28;20034;-76
2021/10/10 07:46:41;;;;;;;11.48;8.00;;;10.90;78.10;;;;;;5006998;28;20116;-77
2021/10/10 07:49:11;;;;;;;13.57;10.18;;;11.10;77.90;;;;;;5004193;28;20385;-76
2021/10/10 07:51:37;;;;;;;16.77;12.48;;;11.10;78.00;;;;;;5006678;28;20480;-77
2021/10/10 07:54:03;;;;;;;18.75;13.55;;;11.20;78.20;;;;;;5006015;28;20158;-76
2021/10/10 07:56:28;;;;;;;17.95;13.85;;;11.30;78.20;;;;;;5000942;28;20472;-76
2021/10/10 07:58:54;;;;;;;13.23;10.02;;;11.30;78.10;;;;;;5006588;28;20086;-76
2021/10/10 08:01:20;;;;;;;12.63;9.45;;;11.50;78.10;;;;;;5004619;28;20042;-77
2021/10/10 08:03:46;;;;;;;13.30;9.70;;;11.60;77.90;;;;;;5008945;28;20052;-76
2021/10/10 08:06:12;;;;;;;13.82;9.60;;;11.70;77.70;;;;;;5002885;28;20499;-74
2021/10/10 08:08:38;;;;;;;12.45;9.00;;;11.80;77.60;;;;;;4998117;28;20026;-74
2021/10/10 08:11:03;;;;;;;13.07;10.27;;;11.90;77.50;;;;;;5001202;28;20053;-74
2021/10/10 08:13:29;;;;;;;12.68;9.05;;;12.00;77.30;;;;;;5006680;28;20026;-76
2021/10/10 08:15:54;;;;;;;12.85;9.10;;;12.10;77.20;;;;;;5022356;28;20034;-76
2021/10/10 08:18:20;;;;;;;11.43;9.43;;;12.20;77.10;;;;;;5040658;28;20028;-75
2021/10/10 08:20:45;;;;;;;13.63;9.70;;;12.30;77.10;;;;;;5010643;28;20075;-75
2021/10/10 08:23:11;;;;;;;11.60;8.07;;;12.40;77.00;;;;;;5031502;28;20433;-75
2021/10/10 08:25:37;;;;;;;12.90;10.18;;;12.50;77.00;;;;;;5045860;28;20407;-75
2021/10/10 08:28:03;;;;;;;15.48;10.82;;;12.60;77.10;;;;;;5018925;28;20037;-74
2021/10/10 08:30:29;;;;;;;12.18;9.02;;;12.70;77.00;;;;;;5008796;28;20495;-74
2021/10/10 08:32:54;;;;;;;12.63;9.43;;;12.80;76.90;;;;;;5018994;28;20029;-74
2021/10/10 08:35:20;;;;;;;13.43;9.68;;;12.90;76.70;;;;;;5010772;28;20014;-74
2021/10/10 08:37:46;;;;;;;16.52;12.35;;;12.90;76.50;;;;;;5010204;28;20105;-74
2021/10/10 08:40:13;;;;;;;15.80;12.27;;;13.00;76.50;;;;;;5010560;28;20125;-75
2021/10/10 08:42:44;;;;;;;15.23;11.30;;;13.00;76.40;;;;;;5008361;28;20052;-74
2021/10/10 08:45:17;;;;;;;16.50;11.25;;;13.10;76.40;;;;;;5012817;28;20033;-75
2021/10/10 08:47:44;;;;;;;15.85;12.02;;;13.10;76.30;;;;;;5008922;28;20429;-75
2021/10/10 08:50:18;;;;;;;16.17;10.27;;;13.10;76.10;;;;;;5012102;28;20108;-75
2021/10/10 08:52:47;;;;;;;16.30;11.10;;;13.10;76.10;;;;;;5007548;28;20075;-75
2021/10/10 08:55:13;;;;;;;19.95;14.45;;;13.20;76.10;;;;;;5011196;28;20038;-76
2021/10/10 08:57:40;;;;;;;16.60;12.68;;;13.20;76.00;;;;;;5009743;28;20052;-75
2021/10/10 09:00:12;;;;;;;18.13;12.27;;;13.20;75.90;;;;;;5025379;28;20037;-75
2021/10/10 09:02:40;;;;;;;18.45;13.38;;;13.30;75.90;;;;;;5009259;28;20387;-76
2021/10/10 09:05:09;;;;;;;15.80;11.15;;;13.30;75.80;;;;;;5010021;28;20053;-76
2021/10/10 09:07:36;;;;;;;13.88;11.15;;;13.40;75.80;;;;;;5031094;28;20022;-75
2021/10/10 09:10:27;;;;;;;13.77;11.30;;;13.40;75.70;;;;;;5011882;28;20511;-75
2021/10/10 09:13:04;;;;;;;13.60;10.25;;;13.40;75.70;;;;;;5001793;28;20441;-76
2021/10/10 09:15:31;;;;;;;14.45;10.25;;;13.50;75.60;;;;;;5005749;28;20037;-75
2021/10/10 09:17:59;;;;;;;14.93;11.40;;;13.60;75.60;;;;;;5009092;28;20026;-75
2021/10/10 09:20:36;;;;;;;16.33;11.55;;;13.60;75.60;;;;;;5009898;28;20038;-76
2021/10/10 09:23:03;;;;;;;14.50;10.68;;;13.70;75.50;;;;;;5010051;28;20109;-75
2021/10/10 09:25:29;;;;;;;13.15;10.00;;;13.70;75.40;;;;;;5007498;28;20057;-76
2021/10/10 09:27:54;;;;;;;12.80;10.20;;;13.70;75.30;;;;;;5006561;28;20057;-76
2021/10/10 09:30:23;;;;;;;15.63;11.35;;;13.80;75.30;;;;;;5015328;28;20109;-75
2021/10/10 09:32:55;;;;;;;13.45;9.95;;;13.80;75.20;;;;;;5009961;28;20026;-76
2021/10/10 09:35:30;;;;;;;14.47;10.20;;;13.90;75.20;;;;;;5007144;28;20722;-76
2021/10/10 09:38:11;;;;;;;13.95;9.77;;;14.00;75.20;;;;;;5008275;28;20041;-76
2021/10/10 09:40:44;;;;;;;13.73;10.23;;;14.00;75.20;;;;;;5008647;28;20680;-77
2021/10/10 09:43:09;;;;;;;14.85;10.85;;;14.10;75.10;;;;;;5010128;28;20063;-77
2021/10/10 09:45:52;;;;;;;14.32;10.48;;;14.20;75.00;;;;;;5014648;28;20655;-77
2021/10/10 09:48:28;;;;;;;11.50;8.27;;;14.20;74.90;;;;;;5007380;28;20034;-77
2021/10/10 09:50:53;;;;;;;11.00;8.50;;;14.20;74.90;;;;;;4998597;28;20040;-77
2021/10/10 09:53:32;;;;;;;13.15;9.77;;;14.20;74.90;;;;;;5007946;28;20109;-77
2021/10/10 09:56:03;;;;;;;12.30;8.98;;;14.20;74.90;;;;;;5010885;28;20065;-77
2021/10/10 09:58:40;;;;;;;12.25;8.65;;;14.30;74.90;;;;;;5009029;28;20045;-77
2021/10/10 10:01:37;;;;;;;11.48;8.98;;;14.30;74.80;;;;;;5015919;28;20513;-78
2021/10/10 10:04:03;;;;;;;12.68;8.65;;;14.40;74.80;;;;;;5008623;28;20038;-77
2021/10/10 10:06:32;;;;;;;10.88;8.38;;;14.40;74.70;;;;;;5008825;28;20095;-77
2021/10/10 10:09:02;;;;;;;9.50;7.35;;;14.40;75.20;;;;;;5015284;28;20037;-77
2021/10/10 10:11:34;;;;;;;13.85;10.43;;;14.50;74.60;;;;;;5009720;28;20057;-77
2021/10/10 10:14:08;;;;;;;13.10;10.23;;;14.50;74.30;;;;;;5008973;28;20029;-77
2021/10/10 10:16:39;;;;;;;11.85;8.80;;;14.60;74.30;;;;;;5009788;28;20033;-76
2021/10/10 10:19:08;;;;;;;21.85;16.50;;;14.70;74.20;;;;;;5008068;28;20071;-77
2021/10/10 10:21:34;;;;;;;19.30;14.25;;;14.70;74.00;;;;;;5009382;28;20373;-76
2021/10/10 10:24:02;;;;;;;16.27;11.85;;;14.70;73.90;;;;;;5009473;28;20041;-77
2021/10/10 10:26:30;;;;;;;14.75;10.63;;;14.80;73.90;;;;;;5011355;28;20026;-77
2021/10/10 10:28:57;;;;;;;17.05;14.63;;;14.90;73.80;;;;;;5014476;28;20042;-76
2021/10/10 10:31:23;;;;;;;15.00;12.07;;;14.90;73.80;;;;;;5016577;28;20026;-76
2021/10/10 10:33:49;;;;;;;13.07;11.05;;;15.00;73.90;;;;;;5015929;28;20156;-77
2021/10/10 10:36:14;;;;;;;13.57;10.30;;;15.10;73.90;;;;;;5030875;28;20046;-76
2021/10/10 10:38:47;;;;;;;13.52;10.23;;;15.20;73.80;;;;;;5019934;28;20026;-77
2021/10/10 10:41:48;;;;;;;14.75;10.40;;;15.30;73.80;;;;;;5015706;28;20041;-77
2021/10/10 10:44:33;;;;;;;11.50;9.38;;;15.30;73.60;;;;;;5015961;28;20033;-78
2021/10/10 10:47:13;;;;;;;12.13;9.40;;;15.40;73.50;;;;;;5003910;28;20503;-77
2021/10/10 10:49:54;;;;;;;13.70;9.95;;;15.40;73.30;;;;;;5011977;28;20045;-77
2021/10/10 10:52:38;;;;;;;13.73;10.30;;;15.50;73.00;;;;;;5007411;28;20018;-77
2021/10/10 10:55:19;;;;;;;11.82;8.88;;;15.60;72.90;;;;;;5008382;28;20107;-77
2021/10/10 10:58:06;;;;;;;10.77;8.40;;;15.60;72.70;;;;;;5009718;28;20018;-77
2021/10/10 11:00:35;;;;;;;14.18;11.02;;;15.60;72.50;;;;;;5007974;28;20038;-77
2021/10/10 11:03:02;;;;;;;14.52;10.40;;;15.60;72.40;;;;;;5008979;28;20030;-77
2021/10/10 11:05:28;;;;;;;13.40;10.55;;;15.70;72.50;;;;;;5009667;28;20495;-76
2021/10/10 11:07:54;;;;;;;13.93;10.27;;;15.70;72.40;;;;;;5013934;28;20057;-77
2021/10/10 11:10:20;;;;;;;14.48;10.60;;;15.80;72.40;;;;;;5009605;28;20037;-78
2021/10/10 11:12:54;;;;;;;14.80;10.68;;;15.90;72.40;;;;;;5009184;28;20105;-76
2021/10/10 11:15:20;;;;;;;15.00;10.50;;;15.90;72.20;;;;;;5010409;28;20030;-79
2021/10/10 11:17:54;;;;;;;13.32;9.43;;;16.00;72.20;;;;;;5007828;28;20109;-77
2021/10/10 11:20:19;;;;;;;14.98;9.52;;;16.10;72.20;;;;;;5008540;28;20118;-77
2021/10/10 11:22:45;;;;;;;14.63;11.32;;;16.10;72.00;;;;;;5008151;28;20068;-77
2021/10/10 11:25:11;;;;;;;14.80;11.52;;;16.30;71.70;;;;;;5009843;28;20059;-77
2021/10/10 11:27:37;;;;;;;13.55;10.10;;;16.40;71.50;;;;;;5008206;28;20022;-77
2021/10/10 11:30:06;;;;;;;12.15;9.10;;;16.40;71.20;;;;;;5008975;28;20030;-76
2021/10/10 11:32:31;;;;;;;11.52;8.55;;;16.50;71.00;;;;;;5004946;28;20025;-77
2021/10/10 11:34:58;;;;;;;11.90;7.72;;;16.60;70.80;;;;;;5006970;28;20030;-76
2021/10/10 11:37:24;;;;;;;10.85;8.00;;;16.70;70.60;;;;;;5007468;28;20026;-76
2021/10/10 11:39:50;;;;;;;18.20;12.50;;;16.80;70.40;;;;;;5002346;28;20026;-76
2021/10/10 11:42:15;;;;;;;12.95;9.30;;;16.70;69.10;;;;;;5000975;28;20107;-76
2021/10/10 11:44:46;;;;;;;11.02;8.20;;;16.70;69.40;;;;;;5004021;28;20032;-77
2021/10/10 11:47:25;;;;;;;11.77;8.13;;;16.80;69.40;;;;;;5001793;28;20026;-77
2021/10/10 11:49:59;;;;;;;13.05;8.45;;;16.90;69.00;;;;;;5000225;28;20114;-78
2021/10/10 11:52:42;;;;;;;13.73;9.55;;;17.00;68.60;;;;;;5006457;28;20079;-77
2021/10/10 11:57:57;;;;;;;14.18;9.93;;;17.10;67.90;;;;;;5006750;28;20042;-77
2021/10/10 12:00:28;;;;;;;14.70;10.43;;;17.20;67.40;;;;;;5007902;28;20116;-77
2021/10/10 12:02:54;;;;;;;12.50;8.32;;;17.20;66.70;;;;;;5007746;28;20033;-77
2021/10/10 12:05:22;;;;;;;10.75;7.72;;;17.30;66.70;;;;;;5007921;28;20494;-77
2021/10/10 12:07:51;;;;;;;16.55;10.75;;;17.30;66.30;;;;;;5017772;28;20022;-77
2021/10/10 12:10:22;;;;;;;14.00;9.90;;;17.30;65.60;;;;;;5007673;28;20038;-77
2021/10/10 12:12:53;;;;;;;11.27;7.85;;;17.40;65.60;;;;;;5007586;28;20026;-77
2021/10/10 12:15:22;;;;;;;13.80;9.00;;;17.60;65.60;;;;;;5007938;28;20042;-76
2021/10/10 12:17:57;;;;;;;14.30;9.93;;;17.70;65.20;;;;;;5006987;28;20025;-77
2021/10/10 12:20:27;;;;;;;13.48;8.73;;;17.80;64.80;;;;;;5007373;28;20042;-76
2021/10/10 12:23:11;;;;;;;15.00;10.45;;;17.90;65.20;;;;;;5007454;28;20030;-77
2021/10/10 12:25:44;;;;;;;13.18;9.60;;;18.00;64.10;;;;;;5007792;28;20422;-77
2021/10/10 12:28:18;;;;;;;13.30;9.43;;;18.10;64.00;;;;;;5007584;28;20054;-77
2021/10/10 12:30:54;;;;;;;16.55;12.05;;;18.10;63.60;;;;;;5004523;28;20026;-77
2021/10/10 12:33:31;;;;;;;13.10;9.23;;;18.10;63.30;;;;;;5000347;28;20030;-77
2021/10/10 12:36:06;;;;;;;12.98;8.60;;;18.20;63.60;;;;;;5007974;28;20041;-77
2021/10/10 12:38:37;;;;;;;14.52;10.38;;;18.30;63.50;;;;;;5007376;28;20021;-77
2021/10/10 12:41:25;;;;;;;14.60;9.60;;;18.40;63.00;;;;;;5007530;28;20059;-77
2021/10/10 12:44:10;;;;;;;13.98;10.50;;;18.50;62.80;;;;;;5007044;28;20046;-77
2021/10/10 12:46:55;;;;;;;15.32;9.55;;;18.50;62.40;;;;;;5007576;28;20041;-76
2021/10/10 12:49:38;;;;;;;13.75;9.60;;;18.70;62.40;;;;;;5008721;28;20117;-76
2021/10/10 12:52:09;;;;;;;;;;;18.90;62.10;;;;;;5006855;28;20063;-76